Time;durP1;ratioP1;P1;durP2;ratioP2;P2;SDS_P1;SDS_P2;PMS_P1;PMS_P2;Temp;Humidity;BMP_temperature;BMP_pressure;BME280_temperature;BME280_humidity;BME280_pressure;Samples;Min_cycle;Max_cycle;Signal;HPM_P1;HPM_P2
2022/03/05 00:00:17;;;;;;;24.92;12.50;;;6.00;53.00;;;;;;5094398;28;20186;-89
2022/03/05 00:02:42;;;;;;;25.80;11.97;;;5.90;53.30;;;;;;5105281;28;20201;-88
2022/03/05 00:05:10;;;;;;;27.57;12.60;;;5.80;53.40;;;;;;5107852;28;20430;-89
2022/03/05 00:07:35;;;;;;;32.05;13.10;;;5.70;53.80;;;;;;5094371;28;20187;-86
2022/03/05 00:10:02;;;;;;;29.53;13.77;;;5.70;53.90;;;;;;5093373;28;20180;-87
2022/03/05 00:12:28;;;;;;;25.48;12.52;;;5.90;53.80;;;;;;5094257;28;20933;-86
2022/03/05 00:14:53;;;;;;;29.10;13.63;;;5.80;53.80;;;;;;5096460;28;20212;-86
2022/03/05 00:17:19;;;;;;;30.23;12.43;;;5.80;53.90;;;;;;5098967;28;20421;-87
2022/03/05 00:19:45;;;;;;;29.03;12.70;;;5.70;54.00;;;;;;5099407;28;20216;-86
2022/03/05 00:22:11;;;;;;;24.33;13.00;;;5.70;54.20;;;;;;5095856;28;20557;-86
2022/03/05 00:24:36;;;;;;;25.73;11.20;;;5.70;54.20;;;;;;5094879;28;20257;-86
2022/03/05 00:27:04;;;;;;;29.10;13.70;;;5.60;54.20;;;;;;5094657;28;20418;-86
2022/03/05 00:29:30;;;;;;;23.05;11.95;;;5.70;54.40;;;;;;5094990;28;20918;-87
2022/03/05 00:31:56;;;;;;;24.77;13.35;;;5.70;54.40;;;;;;5096722;28;20551;-86
2022/03/05 00:34:21;;;;;;;23.52;11.38;;;5.60;54.50;;;;;;5099302;28;20192;-86
2022/03/05 00:36:47;;;;;;;29.10;11.50;;;5.50;54.70;;;;;;5101989;28;20182;-87
2022/03/05 00:39:13;;;;;;;21.53;12.03;;;5.40;55.00;;;;;;5104727;28;20210;-86
2022/03/05 00:41:39;;;;;;;23.45;11.77;;;5.40;55.30;;;;;;5104187;28;20180;-85
2022/03/05 00:44:05;;;;;;;23.50;11.73;;;5.50;55.30;;;;;;5103315;28;20267;-85
2022/03/05 00:46:31;;;;;;;24.47;11.03;;;5.50;55.40;;;;;;5087023;28;20191;-86
2022/03/05 00:48:56;;;;;;;26.17;11.90;;;5.40;55.30;;;;;;5104599;28;20468;-85
2022/03/05 00:51:22;;;;;;;20.60;10.63;;;5.40;55.40;;;;;;5107270;28;20187;-86
2022/03/05 00:53:48;;;;;;;25.23;11.40;;;5.30;55.40;;;;;;5115177;28;20195;-85
2022/03/05 00:56:14;;;;;;;22.83;13.17;;;5.40;55.70;;;;;;5113431;28;20429;-85
2022/03/05 00:58:40;;;;;;;24.73;11.60;;;5.20;55.80;;;;;;5096195;28;20458;-86
2022/03/05 01:01:05;;;;;;;27.23;11.97;;;5.20;56.10;;;;;;5113515;28;20418;-86
2022/03/05 01:03:31;;;;;;;23.97;11.93;;;5.10;56.20;;;;;;5111375;28;20792;-85
2022/03/05 01:05:57;;;;;;;24.87;11.40;;;5.10;56.40;;;;;;5098407;28;20180;-86
2022/03/05 01:08:23;;;;;;;27.30;11.70;;;5.10;56.40;;;;;;5097710;28;20187;-86
2022/03/05 01:10:49;;;;;;;22.20;12.57;;;5.20;56.10;;;;;;5099455;28;20180;-86
2022/03/05 01:13:15;;;;;;;25.60;11.18;;;5.10;56.40;;;;;;5099700;28;20424;-87
2022/03/05 01:15:40;;;;;;;21.57;11.30;;;5.10;56.60;;;;;;5099831;28;20241;-86
2022/03/05 01:18:06;;;;;;;27.77;11.50;;;5.20;57.10;;;;;;5113630;28;20438;-87
2022/03/05 01:20:32;;;;;;;25.90;11.63;;;5.20;56.30;;;;;;5119323;28;20500;-85
2022/03/05 01:22:58;;;;;;;27.50;11.60;;;4.90;56.80;;;;;;5098492;28;20940;-85
2022/03/05 01:25:23;;;;;;;28.10;11.33;;;4.70;57.20;;;;;;5099211;28;20482;-86
2022/03/05 01:27:49;;;;;;;24.27;11.00;;;4.60;57.70;;;;;;5098053;28;20217;-86
2022/03/05 01:30:15;;;;;;;27.33;12.87;;;4.60;58.10;;;;;;5100405;28;20470;-87
2022/03/05 01:32:41;;;;;;;28.23;12.70;;;4.80;58.00;;;;;;5096688;28;20180;-85
2022/03/05 01:35:07;;;;;;;23.70;10.70;;;4.60;58.00;;;;;;5096521;28;20934;-86
2022/03/05 01:37:33;;;;;;;26.55;13.32;;;4.80;58.10;;;;;;5097860;28;20176;-85
2022/03/05 01:39:59;;;;;;;26.63;12.20;;;4.90;57.80;;;;;;5097579;28;20184;-86
2022/03/05 01:42:25;;;;;;;24.57;11.50;;;4.90;57.60;;;;;;5097497;28;20406;-86
2022/03/05 01:44:52;;;;;;;22.00;11.77;;;4.70;57.60;;;;;;5097533;28;20426;-85
2022/03/05 01:47:18;;;;;;;20.95;11.57;;;4.70;57.90;;;;;;5096681;28;20204;-86
2022/03/05 01:49:44;;;;;;;25.77;10.93;;;4.60;58.20;;;;;;5096914;28;20176;-85
2022/03/05 01:52:11;;;;;;;23.08;11.43;;;4.60;58.50;;;;;;5097084;28;20266;-85
2022/03/05 01:54:38;;;;;;;24.38;11.30;;;4.50;58.80;;;;;;5097065;28;20203;-85
2022/03/05 01:57:04;;;;;;;24.88;11.07;;;4.40;58.90;;;;;;5097058;28;20818;-85
2022/03/05 01:59:30;;;;;;;24.90;11.83;;;4.30;59.20;;;;;;5097457;28;20211;-85
2022/03/05 02:01:56;;;;;;;23.98;11.07;;;4.50;59.20;;;;;;5097264;28;20850;-85
2022/03/05 02:04:21;;;;;;;24.60;11.87;;;4.50;59.20;;;;;;5098004;28;20191;-85
2022/03/05 02:06:47;;;;;;;27.03;10.87;;;4.50;59.10;;;;;;5097968;28;20417;-85
2022/03/05 02:09:20;;;;;;;34.33;11.50;;;4.50;59.00;;;;;;5096827;28;20795;-85
2022/03/05 02:11:46;;;;;;;26.55;11.45;;;4.40;59.00;;;;;;5098066;28;20410;-85
2022/03/05 02:14:17;;;;;;;25.65;12.63;;;4.30;59.40;;;;;;5102016;28;20204;-85
2022/03/05 02:16:43;;;;;;;25.60;12.27;;;4.20;59.70;;;;;;5104046;28;20180;-87
2022/03/05 02:19:09;;;;;;;18.65;11.55;;;4.20;60.20;;;;;;5104992;28;20294;-86
2022/03/05 02:21:36;;;;;;;28.57;12.93;;;4.20;60.40;;;;;;5102260;28;20795;-85
2022/03/05 02:24:03;;;;;;;34.10;12.80;;;4.00;60.60;;;;;;5097819;28;20323;-85
2022/03/05 02:26:29;;;;;;;21.50;11.68;;;4.00;61.00;;;;;;5096680;28;20176;-85
2022/03/05 02:28:55;;;;;;;28.90;13.83;;;4.00;61.10;;;;;;5096081;28;20180;-86
2022/03/05 02:31:22;;;;;;;28.20;11.57;;;4.00;61.20;;;;;;5079501;28;20527;-87
2022/03/05 02:33:52;;;;;;;21.55;10.98;;;4.10;61.40;;;;;;5096604;28;20195;-86
2022/03/05 02:36:19;;;;;;;28.73;12.98;;;4.00;61.30;;;;;;5096429;28;20176;-86
2022/03/05 02:38:45;;;;;;;23.98;11.60;;;4.00;61.50;;;;;;5096192;28;20737;-86
2022/03/05 02:41:11;;;;;;;26.33;13.02;;;4.00;61.60;;;;;;5096464;28;20263;-85
2022/03/05 02:43:37;;;;;;;28.20;12.27;;;3.90;61.80;;;;;;5097864;28;20195;-85
2022/03/05 02:46:03;;;;;;;22.50;11.80;;;3.80;62.10;;;;;;5097199;28;20406;-86
2022/03/05 02:48:29;;;;;;;22.05;11.88;;;3.80;62.40;;;;;;5098637;28;20583;-85
2022/03/05 02:50:55;;;;;;;25.05;12.88;;;3.80;62.40;;;;;;5098914;28;20670;-86
2022/03/05 02:53:21;;;;;;;26.85;13.05;;;3.70;62.70;;;;;;5101835;28;20735;-85
2022/03/05 02:55:47;;;;;;;24.03;11.80;;;3.70;62.70;;;;;;5105605;28;20203;-85
2022/03/05 02:58:13;;;;;;;25.60;11.40;;;3.70;63.20;;;;;;5106538;28;20545;-86
2022/03/05 03:00:39;;;;;;;25.57;12.07;;;3.70;63.10;;;;;;5105160;28;20203;-86
2022/03/05 03:03:05;;;;;;;29.63;11.27;;;3.80;62.80;;;;;;5110288;28;20641;-86
2022/03/05 03:05:31;;;;;;;36.08;12.02;;;3.70;62.90;;;;;;5102122;28;20199;-85
2022/03/05 03:07:56;;;;;;;25.40;12.07;;;3.70;62.90;;;;;;5097341;28;20176;-85
2022/03/05 03:10:22;;;;;;;24.10;10.50;;;3.70;63.20;;;;;;5097590;28;20275;-85
2022/03/05 03:12:47;;;;;;;30.97;12.93;;;3.70;63.30;;;;;;5099599;28;20635;-85
2022/03/05 03:15:15;;;;;;;25.50;11.77;;;3.60;63.50;;;;;;5097620;28;20314;-86
2022/03/05 03:17:52;;;;;;;27.45;12.10;;;3.70;63.40;;;;;;5096837;28;20180;-85
2022/03/05 03:20:21;;;;;;;26.67;12.13;;;3.60;63.50;;;;;;5097469;28;20175;-85
2022/03/05 03:22:47;;;;;;;26.75;12.02;;;3.50;63.80;;;;;;5099546;28;20264;-87
2022/03/05 03:25:13;;;;;;;23.48;12.50;;;3.60;63.70;;;;;;5102267;28;20211;-87
2022/03/05 03:27:39;;;;;;;26.33;12.33;;;3.50;64.00;;;;;;5102651;28;20168;-85
2022/03/05 03:30:07;;;;;;;27.85;12.77;;;3.50;64.10;;;;;;5100235;28;20406;-85
2022/03/05 03:32:32;;;;;;;17.95;11.40;;;3.50;64.20;;;;;;5101105;28;20179;-85
2022/03/05 03:34:58;;;;;;;26.47;11.17;;;3.50;64.30;;;;;;5098323;28;20214;-85
2022/03/05 03:37:28;;;;;;;26.10;11.20;;;3.20;65.30;;;;;;5098039;28;20528;-85
2022/03/05 03:39:55;;;;;;;30.08;12.70;;;3.30;64.90;;;;;;5102025;28;21003;-84
2022/03/05 03:42:22;;;;;;;20.65;11.73;;;3.30;64.90;;;;;;5102660;28;20180;-85
2022/03/05 03:44:48;;;;;;;34.30;11.68;;;3.30;65.00;;;;;;5112268;28;20211;-85
2022/03/05 03:47:14;;;;;;;24.70;12.35;;;3.30;65.10;;;;;;5112846;28;20210;-87
2022/03/05 03:49:40;;;;;;;24.40;12.90;;;3.20;65.10;;;;;;5114427;28;20243;-87
2022/03/05 03:52:06;;;;;;;31.10;12.67;;;3.20;65.20;;;;;;5113347;28;20421;-86
2022/03/05 03:54:31;;;;;;;29.30;12.97;;;3.30;65.20;;;;;;5111621;28;20456;-86
2022/03/05 03:56:57;;;;;;;30.63;11.63;;;3.20;65.20;;;;;;5108734;28;20425;-85
2022/03/05 03:59:23;;;;;;;21.90;10.93;;;3.20;65.30;;;;;;5086199;28;20215;-85
2022/03/05 04:01:49;;;;;;;26.33;11.40;;;3.10;65.50;;;;;;5095393;28;20173;-85
2022/03/05 04:04:14;;;;;;;28.40;14.03;;;3.00;65.80;;;;;;5095218;28;20259;-86
2022/03/05 04:09:25;;;;;;;35.33;11.88;;;2.60;67.10;;;;;;5096493;28;20189;-86
2022/03/05 04:11:50;;;;;;;21.00;11.90;;;2.50;67.60;;;;;;5094841;28;20219;-87
2022/03/05 04:14:17;;;;;;;28.07;13.87;;;2.80;67.60;;;;;;5094636;28;20196;-85
2022/03/05 04:16:43;;;;;;;27.55;12.45;;;2.80;67.30;;;;;;5095586;28;20854;-85
2022/03/05 04:19:09;;;;;;;24.03;11.67;;;2.80;67.30;;;;;;5095928;28;20207;-86
2022/03/05 04:21:35;;;;;;;31.00;13.10;;;2.60;67.60;;;;;;5096801;28;20497;-85
2022/03/05 04:24:01;;;;;;;31.50;13.75;;;2.70;67.80;;;;;;5100594;28;20192;-85
2022/03/05 04:26:27;;;;;;;25.85;11.90;;;2.90;67.40;;;;;;5097675;28;20214;-85
2022/03/05 04:28:52;;;;;;;21.33;12.10;;;3.10;67.20;;;;;;5100190;28;20180;-85
2022/03/05 04:31:18;;;;;;;29.50;13.37;;;3.00;66.90;;;;;;5100490;28;20184;-85
2022/03/05 04:33:44;;;;;;;23.30;12.10;;;2.70;67.40;;;;;;5100828;28;20214;-85
2022/03/05 04:36:09;;;;;;;36.27;12.73;;;2.50;68.00;;;;;;5101246;28;20186;-85
2022/03/05 04:38:35;;;;;;;24.57;12.83;;;2.60;68.20;;;;;;5101469;28;21027;-85
2022/03/05 04:41:01;;;;;;;28.67;12.13;;;2.90;68.00;;;;;;5101765;28;20203;-84
2022/03/05 04:43:27;;;;;;;31.83;13.07;;;3.10;67.10;;;;;;5103970;28;20196;-85
2022/03/05 04:45:52;;;;;;;27.73;11.40;;;3.10;66.60;;;;;;5104313;28;20715;-85
2022/03/05 04:48:18;;;;;;;23.97;13.23;;;3.00;66.50;;;;;;5104309;28;20446;-86
2022/03/05 04:50:46;;;;;;;29.13;13.77;;;3.00;66.60;;;;;;5106463;28;20191;-90
2022/03/05 04:53:11;;;;;;;27.00;14.23;;;3.10;66.70;;;;;;5120449;28;20148;-88
2022/03/05 04:55:37;;;;;;;41.13;16.73;;;3.00;66.60;;;;;;5115018;28;20180;-85
2022/03/05 04:58:03;;;;;;;25.80;10.90;;;2.90;66.70;;;;;;5101921;28;20204;-85
2022/03/05 05:00:28;;;;;;;32.73;12.67;;;2.80;67.00;;;;;;5101884;28;20225;-85
2022/03/05 05:02:54;;;;;;;25.77;14.00;;;2.50;67.70;;;;;;5101254;28;20258;-85
2022/03/05 05:05:21;;;;;;;28.65;13.75;;;2.40;68.20;;;;;;5100527;28;20196;-86
2022/03/05 05:07:46;;;;;;;22.83;12.32;;;2.70;68.40;;;;;;5097401;28;20187;-86
2022/03/05 05:10:12;;;;;;;37.63;13.07;;;2.90;67.70;;;;;;5097683;28;20195;-85
2022/03/05 05:12:38;;;;;;;30.80;12.90;;;2.90;67.40;;;;;;5101097;28;20413;-85
2022/03/05 05:15:04;;;;;;;28.80;14.50;;;2.60;67.80;;;;;;5088131;28;20238;-86
2022/03/05 05:17:37;;;;;;;28.90;12.30;;;2.40;68.40;;;;;;5110262;28;20198;-85
2022/03/05 05:20:07;;;;;;;21.55;10.88;;;2.30;69.10;;;;;;5110529;28;20175;-88
2022/03/05 05:22:33;;;;;;;29.02;14.00;;;2.60;69.00;;;;;;5101623;28;20252;-85
2022/03/05 05:25:00;;;;;;;32.47;13.73;;;2.70;68.50;;;;;;5101138;28;20192;-85
2022/03/05 05:27:26;;;;;;;31.40;13.05;;;2.70;68.30;;;;;;5100029;28;20179;-85
2022/03/05 05:29:54;;;;;;;28.52;11.82;;;2.40;68.60;;;;;;5099207;28;20180;-85
2022/03/05 05:32:20;;;;;;;27.27;12.50;;;2.10;69.40;;;;;;5098967;28;20172;-86
2022/03/05 05:34:45;;;;;;;33.97;14.03;;;2.20;69.80;;;;;;5098216;28;20336;-86
2022/03/05 05:37:11;;;;;;;21.30;11.60;;;2.50;69.70;;;;;;5099624;28;20502;-88
2022/03/05 05:39:37;;;;;;;24.52;13.73;;;2.30;69.50;;;;;;5099450;28;20275;-85
2022/03/05 05:42:04;;;;;;;39.30;13.37;;;2.50;69.60;;;;;;5101697;28;20611;-85
2022/03/05 05:44:30;;;;;;;37.40;15.52;;;2.40;69.50;;;;;;5105531;28;20465;-86
2022/03/05 05:46:56;;;;;;;24.55;12.23;;;2.50;69.40;;;;;;5102910;28;20209;-86
2022/03/05 05:49:22;;;;;;;34.40;13.90;;;2.50;69.40;;;;;;5099897;28;20172;-85
2022/03/05 05:51:47;;;;;;;28.13;11.33;;;2.40;69.40;;;;;;5101331;28;20172;-85
2022/03/05 05:54:13;;;;;;;25.33;13.10;;;2.20;69.80;;;;;;5099740;28;20441;-85
2022/03/05 05:56:39;;;;;;;36.90;12.90;;;2.00;70.30;;;;;;5102161;28;20884;-85
2022/03/05 05:59:05;;;;;;;28.90;12.83;;;2.00;70.70;;;;;;5103227;28;20407;-85
2022/03/05 06:01:31;;;;;;;23.85;12.35;;;1.90;71.20;;;;;;5108726;28;20430;-85
2022/03/05 06:03:57;;;;;;;40.00;14.52;;;1.80;71.60;;;;;;5108996;28;20203;-85
2022/03/05 06:06:23;;;;;;;35.53;14.02;;;1.80;71.90;;;;;;5101928;28;20168;-85
2022/03/05 06:08:50;;;;;;;32.33;13.65;;;1.70;72.20;;;;;;5101970;28;20203;-85
2022/03/05 06:11:16;;;;;;;31.55;15.20;;;1.80;72.30;;;;;;5098140;28;20238;-85
2022/03/05 06:13:42;;;;;;;36.10;14.68;;;1.80;72.20;;;;;;5098313;28;20589;-85
2022/03/05 06:16:08;;;;;;;32.95;12.30;;;2.00;72.00;;;;;;5099787;28;20198;-84
2022/03/05 06:18:35;;;;;;;32.70;13.00;;;1.90;71.90;;;;;;5099523;28;20204;-85
2022/03/05 06:21:01;;;;;;;26.75;13.73;;;1.90;72.00;;;;;;5099703;28;20460;-89
2022/03/05 06:23:29;;;;;;;29.63;13.07;;;1.90;72.10;;;;;;5085431;28;20192;-88
2022/03/05 06:25:55;;;;;;;35.47;14.57;;;1.80;72.20;;;;;;5086524;28;20422;-84
2022/03/05 06:28:20;;;;;;;36.90;13.33;;;1.80;72.40;;;;;;5085456;28;20176;-85
2022/03/05 06:30:46;;;;;;;33.93;15.97;;;1.90;72.60;;;;;;5079682;28;20677;-85
2022/03/05 06:33:12;;;;;;;36.23;14.60;;;2.30;72.30;;;;;;5080418;28;20648;-85
2022/03/05 06:35:37;;;;;;;28.97;12.80;;;2.60;71.40;;;;;;5082538;28;20181;-85
2022/03/05 06:38:04;;;;;;;29.03;13.90;;;2.40;70.80;;;;;;5083251;28;20252;-86
2022/03/05 06:40:29;;;;;;;35.83;16.75;;;2.30;70.90;;;;;;5088814;28;20180;-86
2022/03/05 06:42:55;;;;;;;28.73;12.67;;;2.70;70.60;;;;;;5090546;28;20188;-85
2022/03/05 06:45:21;;;;;;;32.87;15.03;;;2.80;69.90;;;;;;5092697;28;20450;-86
2022/03/05 06:47:48;;;;;;;33.70;14.68;;;2.80;69.70;;;;;;5094132;28;20160;-86
2022/03/05 06:50:13;;;;;;;34.28;14.18;;;3.00;69.20;;;;;;5093882;28;20173;-86
2022/03/05 06:52:39;;;;;;;28.33;13.83;;;3.10;68.70;;;;;;5094205;28;20223;-85
2022/03/05 06:55:06;;;;;;;24.80;14.18;;;3.10;68.20;;;;;;5089982;28;20200;-85
2022/03/05 06:57:32;;;;;;;28.45;13.70;;;3.20;68.00;;;;;;5085525;28;20180;-85
2022/03/05 06:59:58;;;;;;;28.98;15.10;;;3.30;67.90;;;;;;5079770;28;20184;-85
2022/03/05 07:02:24;;;;;;;42.87;15.97;;;3.20;67.60;;;;;;5078955;28;20173;-85
2022/03/05 07:04:53;;;;;;;29.80;12.80;;;3.20;67.50;;;;;;5078768;28;20188;-85
2022/03/05 07:07:18;;;;;;;34.28;14.38;;;3.20;67.50;;;;;;5079396;28;20173;-86
2022/03/05 07:09:44;;;;;;;32.20;15.00;;;3.10;67.60;;;;;;5083005;28;20175;-85
2022/03/05 07:12:10;;;;;;;29.57;13.57;;;3.10;67.60;;;;;;5078815;28;20184;-85
2022/03/05 07:14:36;;;;;;;46.43;15.60;;;3.10;67.50;;;;;;5079943;28;20684;-85
2022/03/05 07:17:03;;;;;;;38.75;15.00;;;3.10;67.30;;;;;;5079568;28;20419;-85
2022/03/05 07:19:29;;;;;;;27.20;13.18;;;3.10;67.40;;;;;;5063446;28;20227;-86
2022/03/05 07:21:54;;;;;;;30.10;12.60;;;3.00;67.50;;;;;;5083106;28;20207;-85
2022/03/05 07:24:20;;;;;;;31.70;13.30;;;3.00;67.60;;;;;;5085527;28;20223;-85
2022/03/05 07:26:46;;;;;;;36.57;13.47;;;3.00;67.70;;;;;;5078491;28;20246;-85
2022/03/05 07:29:12;;;;;;;44.33;14.10;;;2.80;67.80;;;;;;5077298;28;20418;-85
2022/03/05 07:31:38;;;;;;;28.60;14.00;;;2.70;68.40;;;;;;5078389;28;20420;-86
2022/03/05 07:34:04;;;;;;;29.73;13.63;;;2.70;69.00;;;;;;5076664;28;20227;-85
2022/03/05 07:36:30;;;;;;;35.20;15.03;;;2.80;69.10;;;;;;5078069;28;20184;-85
2022/03/05 07:38:56;;;;;;;36.28;17.05;;;2.70;69.10;;;;;;5075411;28;20472;-86
2022/03/05 07:41:22;;;;;;;33.58;15.25;;;2.60;69.10;;;;;;5075847;28;20181;-86
2022/03/05 07:43:48;;;;;;;32.63;14.67;;;2.60;69.20;;;;;;5076903;28;20750;-85
2022/03/05 07:46:14;;;;;;;30.40;13.48;;;2.70;69.20;;;;;;5075597;28;20177;-85
2022/03/05 07:48:39;;;;;;;37.22;15.18;;;2.70;69.30;;;;;;5076599;28;20190;-84
2022/03/05 07:51:05;;;;;;;37.63;15.03;;;2.80;69.20;;;;;;5077035;28;20184;-86
2022/03/05 07:53:31;;;;;;;28.33;14.17;;;2.90;69.00;;;;;;5077229;28;20449;-85
2022/03/05 07:55:58;;;;;;;37.10;15.68;;;3.00;68.80;;;;;;5077910;28;20434;-86
2022/03/05 07:58:24;;;;;;;38.05;16.08;;;2.90;68.70;;;;;;5077996;28;20206;-85
2022/03/05 08:00:49;;;;;;;29.63;16.27;;;3.00;68.30;;;;;;5078037;28;20168;-85
2022/03/05 08:03:15;;;;;;;36.17;16.33;;;2.80;68.40;;;;;;5078780;28;20581;-86
2022/03/05 08:05:43;;;;;;;29.17;14.48;;;2.50;69.30;;;;;;5079768;28;20184;-87
2022/03/05 08:08:08;;;;;;;29.50;14.88;;;2.40;69.80;;;;;;5079016;28;20561;-86
2022/03/05 08:10:34;;;;;;;34.37;15.13;;;2.60;70.10;;;;;;5080666;28;20181;-86
2022/03/05 08:13:00;;;;;;;33.50;16.73;;;2.80;69.60;;;;;;5082323;28;20410;-86
2022/03/05 08:15:26;;;;;;;33.83;16.33;;;3.10;68.90;;;;;;5084914;28;20220;-86
2022/03/05 08:17:57;;;;;;;35.97;16.58;;;3.10;68.50;;;;;;5087332;28;20172;-86
2022/03/05 08:20:25;;;;;;;37.08;16.20;;;3.00;69.40;;;;;;5087272;28;20233;-88
2022/03/05 08:22:51;;;;;;;30.75;15.75;;;2.90;68.60;;;;;;5086972;28;20183;-88
2022/03/05 08:25:18;;;;;;;31.98;14.38;;;3.20;68.50;;;;;;5084048;28;20252;-87
2022/03/05 08:27:44;;;;;;;41.03;16.58;;;3.40;67.80;;;;;;5088356;28;20535;-89
2022/03/05 08:30:11;;;;;;;38.57;16.07;;;3.70;67.40;;;;;;5081410;28;20173;-85
2022/03/05 08:32:37;;;;;;;32.40;16.45;;;3.70;66.80;;;;;;5082252;28;20440;-85
2022/03/05 08:35:04;;;;;;;31.63;15.07;;;4.00;66.10;;;;;;5077937;28;20263;-85
2022/03/05 08:37:30;;;;;;;37.95;16.95;;;4.00;65.70;;;;;;5082036;28;20173;-85
2022/03/05 08:39:56;;;;;;;41.27;17.67;;;4.10;65.30;;;;;;5075748;28;20212;-88
2022/03/05 08:42:21;;;;;;;34.10;16.37;;;3.80;65.50;;;;;;5075565;28;20173;-87
2022/03/05 08:44:47;;;;;;;37.37;16.40;;;3.70;65.40;;;;;;5076282;28;20447;-86
2022/03/05 08:47:13;;;;;;;39.10;17.90;;;3.70;65.50;;;;;;5077266;28;20251;-86
2022/03/05 08:49:39;;;;;;;37.60;16.07;;;3.50;65.80;;;;;;5079210;28;20414;-85
2022/03/05 08:52:05;;;;;;;33.80;16.00;;;3.70;66.00;;;;;;5077113;28;20177;-85
2022/03/05 08:54:31;;;;;;;37.30;17.23;;;4.20;65.50;;;;;;5075983;28;20254;-85
2022/03/05 08:56:57;;;;;;;33.00;17.20;;;4.40;64.70;;;;;;5078184;28;20180;-85
2022/03/05 08:59:23;;;;;;;34.67;19.75;;;4.50;64.10;;;;;;5088042;28;20449;-86
2022/03/05 09:01:49;;;;;;;35.57;18.33;;;4.60;63.70;;;;;;5101781;28;20180;-87
2022/03/05 09:04:15;;;;;;;40.90;17.58;;;4.70;63.30;;;;;;5098670;28;20191;-86
2022/03/05 09:06:41;;;;;;;41.63;17.03;;;4.80;62.60;;;;;;5095263;28;20180;-86
2022/03/05 09:09:08;;;;;;;40.67;18.35;;;5.00;62.20;;;;;;5095721;28;20462;-84
2022/03/05 09:11:37;;;;;;;43.08;17.60;;;5.00;62.00;;;;;;5096095;28;20662;-84
2022/03/05 09:14:04;;;;;;;38.25;17.77;;;4.90;61.90;;;;;;5078246;28;20212;-84
2022/03/05 09:16:29;;;;;;;31.02;16.85;;;4.80;61.70;;;;;;5077734;28;20204;-84
2022/03/05 09:18:55;;;;;;;41.37;18.10;;;5.00;61.60;;;;;;5077362;28;20200;-84
2022/03/05 09:21:21;;;;;;;33.00;16.57;;;5.10;61.60;;;;;;5079597;28;20418;-84
2022/03/05 09:23:47;;;;;;;37.10;17.60;;;5.10;61.40;;;;;;5077818;28;20463;-83
2022/03/05 09:26:17;;;;;;;42.22;20.00;;;5.20;61.10;;;;;;5078371;28;20177;-83
2022/03/05 09:28:44;;;;;;;39.97;19.17;;;5.40;60.60;;;;;;5078053;28;20180;-84
2022/03/05 09:31:10;;;;;;;32.65;17.98;;;5.50;60.60;;;;;;5078391;28;20291;-84
2022/03/05 09:33:37;;;;;;;40.30;20.25;;;5.50;60.30;;;;;;5078320;28;20205;-83
2022/03/05 09:36:03;;;;;;;39.28;18.90;;;5.30;60.30;;;;;;5082875;28;20253;-84
2022/03/05 09:38:29;;;;;;;46.13;18.58;;;5.50;59.80;;;;;;5088099;28;20215;-87
2022/03/05 09:40:56;;;;;;;35.13;18.30;;;5.20;59.80;;;;;;5088921;28;20173;-85
2022/03/05 09:43:23;;;;;;;27.23;17.33;;;5.40;60.00;;;;;;5094848;28;20184;-86
2022/03/05 09:45:49;;;;;;;31.92;16.70;;;5.70;59.70;;;;;;5111535;28;20239;-89
2022/03/05 09:48:17;;;;;;;38.92;18.33;;;5.70;59.30;;;;;;5108323;28;20186;-85
2022/03/05 09:50:43;;;;;;;35.88;17.25;;;5.80;59.10;;;;;;5108269;28;20257;-87
2022/03/05 09:53:09;;;;;;;44.00;20.45;;;5.90;59.10;;;;;;5107678;28;20188;-85
2022/03/05 09:55:36;;;;;;;41.35;18.40;;;6.00;58.70;;;;;;5105208;28;20179;-84
2022/03/05 09:58:02;;;;;;;39.17;20.23;;;6.20;58.30;;;;;;5105246;28;20208;-84
2022/03/05 10:00:29;;;;;;;50.30;22.27;;;6.30;58.00;;;;;;5103689;28;20218;-86
2022/03/05 10:02:55;;;;;;;33.50;19.70;;;6.60;57.50;;;;;;5093264;28;20414;-84
2022/03/05 10:05:24;;;;;;;47.45;19.55;;;6.60;56.70;;;;;;5100950;28;20211;-86
2022/03/05 10:08:15;;;;;;;41.78;18.73;;;6.70;56.70;;;;;;5101476;28;20176;-84
2022/03/05 10:10:48;;;;;;;37.92;19.02;;;6.80;56.20;;;;;;5101864;28;20175;-86
2022/03/05 10:13:22;;;;;;;35.95;18.20;;;6.80;55.90;;;;;;5099607;28;20190;-86
2022/03/05 10:15:53;;;;;;;37.40;19.45;;;6.90;55.40;;;;;;5101569;28;20196;-86
2022/03/05 10:18:29;;;;;;;43.40;19.10;;;7.00;55.00;;;;;;5105018;28;20230;-88
2022/03/05 10:21:00;;;;;;;35.92;18.20;;;7.10;54.60;;;;;;5094527;28;20185;-87
2022/03/05 10:23:29;;;;;;;49.53;19.20;;;7.20;54.10;;;;;;5100721;28;20708;-88
2022/03/05 10:25:55;;;;;;;44.30;19.80;;;7.30;53.80;;;;;;5106339;28;20187;-87
2022/03/05 10:28:25;;;;;;;39.80;20.25;;;7.30;53.30;;;;;;5089414;28;20184;-88
2022/03/05 10:30:58;;;;;;;34.92;20.58;;;7.30;53.00;;;;;;5106077;28;20274;-88
2022/03/05 10:33:44;;;;;;;45.35;18.60;;;7.40;52.60;;;;;;5107400;28;20160;-87
2022/03/05 10:36:22;;;;;;;42.25;19.30;;;7.50;52.40;;;;;;5106683;28;20482;-88
2022/03/05 10:38:49;;;;;;;40.22;19.73;;;7.50;52.50;;;;;;5104964;28;20245;-88
2022/03/05 10:41:18;;;;;;;39.28;19.65;;;7.70;52.40;;;;;;5101544;28;20199;-88
2022/03/05 10:44:04;;;;;;;43.55;20.60;;;7.70;51.90;;;;;;5096416;28;20248;-87
2022/03/05 10:47:03;;;;;;;37.13;19.00;;;7.80;51.50;;;;;;5095508;28;20192;-88
2022/03/05 10:49:37;;;;;;;44.83;21.90;;;8.10;50.90;;;;;;5094483;28;20247;-88
2022/03/05 10:52:04;;;;;;;48.83;19.02;;;8.00;50.20;;;;;;5094059;28;20560;-88
2022/03/05 10:54:40;;;;;;;37.08;19.00;;;8.10;49.90;;;;;;5092692;28;20202;-87
2022/03/05 10:57:17;;;;;;;32.13;18.38;;;8.10;49.40;;;;;;5094995;28;20176;-88
2022/03/05 10:59:55;;;;;;;49.03;19.08;;;8.20;49.30;;;;;;5097777;28;20279;-84
2022/03/05 11:02:22;;;;;;;36.22;19.90;;;7.90;48.90;;;;;;5087978;28;20187;-84
2022/03/05 11:04:49;;;;;;;41.42;20.23;;;7.90;49.50;;;;;;5098641;28;20203;-84
2022/03/05 11:07:17;;;;;;;35.42;17.75;;;8.00;49.00;;;;;;5101598;28;20175;-86
2022/03/05 11:09:43;;;;;;;42.40;19.80;;;8.20;48.80;;;;;;5085218;28;20188;-85
2022/03/05 11:12:16;;;;;;;47.95;18.98;;;8.40;48.40;;;;;;5082161;28;20218;-86
2022/03/05 11:14:49;;;;;;;37.35;18.67;;;8.60;48.30;;;;;;5087649;28;20211;-85
2022/03/05 11:17:15;;;;;;;37.70;17.50;;;8.70;47.70;;;;;;5081869;28;20541;-86
2022/03/05 11:19:41;;;;;;;41.05;19.00;;;8.80;47.30;;;;;;5082209;28;20216;-86
2022/03/05 11:22:08;;;;;;;37.67;18.30;;;8.70;46.40;;;;;;5080996;28;20275;-85
2022/03/05 11:24:39;;;;;;;45.20;19.40;;;8.70;45.80;;;;;;5061590;28;20231;-85
2022/03/05 11:27:05;;;;;;;36.72;17.33;;;8.80;45.80;;;;;;5076313;28;20180;-86
2022/03/05 11:29:52;;;;;;;41.57;19.83;;;9.10;45.80;;;;;;5076364;28;20180;-86
2022/03/05 11:32:19;;;;;;;34.75;17.58;;;9.00;44.70;;;;;;5076442;28;20402;-86
2022/03/05 11:34:47;;;;;;;34.70;19.33;;;8.90;44.50;;;;;;5082875;28;20290;-86
2022/03/05 11:37:34;;;;;;;37.47;18.17;;;9.20;44.40;;;;;;5095796;28;20187;-86
2022/03/05 11:40:05;;;;;;;38.05;17.98;;;9.30;43.80;;;;;;5094463;28;20245;-86
2022/03/05 11:42:36;;;;;;;34.08;16.90;;;9.50;43.60;;;;;;5096135;28;20180;-86
2022/03/05 11:45:28;;;;;;;32.85;19.23;;;9.60;43.70;;;;;;5094772;28;20204;-85
2022/03/05 11:48:14;;;;;;;34.30;16.50;;;9.70;43.30;;;;;;5077679;28;20557;-88
2022/03/05 11:50:49;;;;;;;31.95;16.60;;;9.80;42.80;;;;;;5094954;28;20168;-86
2022/03/05 11:53:15;;;;;;;32.72;16.70;;;9.60;41.90;;;;;;5095671;28;20171;-85
2022/03/05 11:55:42;;;;;;;35.37;17.77;;;9.60;42.50;;;;;;5101349;28;20183;-88
2022/03/05 11:58:09;;;;;;;35.70;17.75;;;9.70;42.50;;;;;;5111995;28;20456;-86
2022/03/05 12:00:44;;;;;;;34.30;18.20;;;9.70;41.60;;;;;;5105915;28;20211;-87
2022/03/05 12:03:09;;;;;;;31.13;17.50;;;9.70;41.60;;;;;;5096672;28;20172;-86
2022/03/05 12:05:41;;;;;;;38.27;18.73;;;9.90;41.30;;;;;;5097317;28;20179;-86
2022/03/05 12:08:30;;;;;;;31.35;17.52;;;10.00;40.10;;;;;;5098287;28;20176;-86
2022/03/05 12:11:14;;;;;;;32.10;16.48;;;10.20;39.90;;;;;;5097926;28;20175;-86
2022/03/05 12:13:42;;;;;;;33.60;18.33;;;10.40;39.80;;;;;;5083399;28;20245;-86
2022/03/05 12:16:21;;;;;;;30.17;17.58;;;10.40;39.20;;;;;;5083693;28;20195;-85
2022/03/05 12:18:48;;;;;;;38.80;17.02;;;10.60;39.10;;;;;;5098984;28;20208;-89
2022/03/05 12:21:20;;;;;;;36.80;18.38;;;10.60;39.30;;;;;;5095858;28;20202;-89
2022/03/05 12:23:46;;;;;;;28.65;15.85;;;10.60;39.20;;;;;;5094171;28;20253;-88
2022/03/05 12:26:16;;;;;;;30.20;16.53;;;10.20;37.00;;;;;;5094481;28;20574;-88
2022/03/05 12:28:44;;;;;;;31.35;17.48;;;10.10;37.10;;;;;;5095224;28;20193;-88
2022/03/05 12:31:19;;;;;;;26.67;15.07;;;10.30;36.80;;;;;;5095817;28;20176;-87
2022/03/05 12:33:46;;;;;;;23.90;13.00;;;10.30;35.90;;;;;;5095520;28;20200;-85
2022/03/05 12:36:20;;;;;;;23.50;12.50;;;10.20;34.90;;;;;;5097056;28;20186;-85
2022/03/05 12:38:56;;;;;;;31.98;14.00;;;10.30;34.40;;;;;;5095602;28;20576;-85